<?xml version="1.0" encoding="UTF-8" standalone="no" ?>
<gpx xmlns="http://www.topografix.com/GPX/1/1" xmlns:xsi="http://www.w3.org/2001/XMLSchema-instance" xsi:schemaLocation="http://www.topografix.com/GPX/1/1 http://www.topografix.com/GPX/1/1/gpx.xsd" version="1.1" creator="VisuGPX - https://www.visugpx.com">
  <metadata>
    <name>21.05.2020 vélo de route-lutzelhouse liepvre</name>
    <desc><![CDATA[petites routes de campagne agréables. Très peu de voitures.]]></desc>
  </metadata>
  <trk>
    <name><![CDATA[11317365-lutzelhouse liepvre]]></name>
    <extensions>
      <line xmlns="http://www.topografix.com/GPX/gpx_style/0/2">
        <color>0000FF</color>
        <width>4</width>
      </line>
    </extensions>
    <trkseg>
      <trkpt lat="48.51912" lon="7.28808">
        <ele>270</ele>
        <time>2022-06-09T14:54:40Z</time>
      </trkpt>
      <trkpt lat="48.50831" lon="7.27236">
        <ele>268</ele>
        <time>2022-06-09T14:59:07Z</time>
      </trkpt>
      <trkpt lat="48.50831" lon="7.26317">
        <ele>276</ele>
        <time>2022-06-09T15:00:55Z</time>
      </trkpt>
      <trkpt lat="48.50073" lon="7.25011">
        <ele>355</ele>
        <time>2022-06-09T15:04:20Z</time>
      </trkpt>
      <trkpt lat="48.49424" lon="7.25909">
        <ele>310</ele>
        <time>2022-06-09T15:06:57Z</time>
      </trkpt>
      <trkpt lat="48.49857" lon="7.27501">
        <ele>349</ele>
        <time>2022-06-09T15:10:20Z</time>
      </trkpt>
      <trkpt lat="48.50176" lon="7.28408">
        <ele>352</ele>
        <time>2022-06-09T15:12:21Z</time>
      </trkpt>
      <trkpt lat="48.50099" lon="7.28928">
        <ele>384</ele>
        <time>2022-06-09T15:13:24Z</time>
      </trkpt>
      <trkpt lat="48.50415" lon="7.28914">
        <ele>395</ele>
        <time>2022-06-09T15:14:20Z</time>
      </trkpt>
      <trkpt lat="48.50664" lon="7.29303">
        <ele>414</ele>
        <time>2022-06-09T15:15:24Z</time>
      </trkpt>
      <trkpt lat="48.50511" lon="7.29477">
        <ele>445</ele>
        <time>2022-06-09T15:15:58Z</time>
      </trkpt>
      <trkpt lat="48.50625" lon="7.29881">
        <ele>443</ele>
        <time>2022-06-09T15:16:49Z</time>
      </trkpt>
      <trkpt lat="48.50319" lon="7.29953">
        <ele>475</ele>
        <time>2022-06-09T15:17:45Z</time>
      </trkpt>
      <trkpt lat="48.49908" lon="7.30588">
        <ele>514</ele>
        <time>2022-06-09T15:19:29Z</time>
      </trkpt>
      <trkpt lat="48.49918" lon="7.31353">
        <ele>543</ele>
        <time>2022-06-09T15:20:59Z</time>
      </trkpt>
      <trkpt lat="48.49526" lon="7.31685">
        <ele>533</ele>
        <time>2022-06-09T15:22:19Z</time>
      </trkpt>
      <trkpt lat="48.49258" lon="7.32248">
        <ele>518</ele>
        <time>2022-06-09T15:23:41Z</time>
      </trkpt>
      <trkpt lat="48.49235" lon="7.3234">
        <ele>517</ele>
        <time>2022-06-09T15:23:53Z</time>
      </trkpt>
      <trkpt lat="48.49094" lon="7.32252">
        <ele>511</ele>
        <time>2022-06-09T15:24:20Z</time>
      </trkpt>
      <trkpt lat="48.48942" lon="7.3229">
        <ele>495</ele>
        <time>2022-06-09T15:24:47Z</time>
      </trkpt>
      <trkpt lat="48.48794" lon="7.32131">
        <ele>492</ele>
        <time>2022-06-09T15:25:20Z</time>
      </trkpt>
      <trkpt lat="48.48715" lon="7.32269">
        <ele>494</ele>
        <time>2022-06-09T15:25:41Z</time>
      </trkpt>
      <trkpt lat="48.48402" lon="7.32003">
        <ele>525</ele>
        <time>2022-06-09T15:26:45Z</time>
      </trkpt>
      <trkpt lat="48.48032" lon="7.32063">
        <ele>549</ele>
        <time>2022-06-09T15:27:51Z</time>
      </trkpt>
      <trkpt lat="48.47275" lon="7.32131">
        <ele>594</ele>
        <time>2022-06-09T15:30:06Z</time>
      </trkpt>
      <trkpt lat="48.47082" lon="7.32363">
        <ele>604</ele>
        <time>2022-06-09T15:30:50Z</time>
      </trkpt>
      <trkpt lat="48.46837" lon="7.3238">
        <ele>610</ele>
        <time>2022-06-09T15:31:34Z</time>
      </trkpt>
      <trkpt lat="48.46467" lon="7.32003">
        <ele>622</ele>
        <time>2022-06-09T15:32:53Z</time>
      </trkpt>
      <trkpt lat="48.45829" lon="7.32028">
        <ele>641</ele>
        <time>2022-06-09T15:34:47Z</time>
      </trkpt>
      <trkpt lat="48.44628" lon="7.31488">
        <ele>724</ele>
        <time>2022-06-09T15:38:30Z</time>
      </trkpt>
      <trkpt lat="48.44497" lon="7.31093">
        <ele>759</ele>
        <time>2022-06-09T15:39:22Z</time>
      </trkpt>
      <trkpt lat="48.44082" lon="7.31144">
        <ele>795</ele>
        <time>2022-06-09T15:40:36Z</time>
      </trkpt>
      <trkpt lat="48.44167" lon="7.31771">
        <ele>836</ele>
        <time>2022-06-09T15:41:51Z</time>
      </trkpt>
      <trkpt lat="48.44025" lon="7.32183">
        <ele>853</ele>
        <time>2022-06-09T15:42:46Z</time>
      </trkpt>
      <trkpt lat="48.43763" lon="7.32458">
        <ele>878</ele>
        <time>2022-06-09T15:43:43Z</time>
      </trkpt>
      <trkpt lat="48.43723" lon="7.32595">
        <ele>891</ele>
        <time>2022-06-09T15:44:01Z</time>
      </trkpt>
      <trkpt lat="48.43524" lon="7.32028">
        <ele>918</ele>
        <time>2022-06-09T15:45:16Z</time>
      </trkpt>
      <trkpt lat="48.43313" lon="7.32003">
        <ele>929</ele>
        <time>2022-06-09T15:45:54Z</time>
      </trkpt>
      <trkpt lat="48.43057" lon="7.31814">
        <ele>942</ele>
        <time>2022-06-09T15:46:45Z</time>
      </trkpt>
      <trkpt lat="48.428" lon="7.31479">
        <ele>953</ele>
        <time>2022-06-09T15:47:45Z</time>
      </trkpt>
      <trkpt lat="48.42748" lon="7.3219">
        <ele>936</ele>
        <time>2022-06-09T15:49:10Z</time>
      </trkpt>
      <trkpt lat="48.4248" lon="7.32392">
        <ele>918</ele>
        <time>2022-06-09T15:50:03Z</time>
      </trkpt>
      <trkpt lat="48.42087" lon="7.32912">
        <ele>894</ele>
        <time>2022-06-09T15:51:36Z</time>
      </trkpt>
      <trkpt lat="48.4226" lon="7.3359">
        <ele>894</ele>
        <time>2022-06-09T15:53:02Z</time>
      </trkpt>
      <trkpt lat="48.4239" lon="7.33994">
        <ele>895</ele>
        <time>2022-06-09T15:53:55Z</time>
      </trkpt>
      <trkpt lat="48.42333" lon="7.34809">
        <ele>871</ele>
        <time>2022-06-09T15:55:32Z</time>
      </trkpt>
      <trkpt lat="48.42083" lon="7.35067">
        <ele>838</ele>
        <time>2022-06-09T15:56:26Z</time>
      </trkpt>
      <trkpt lat="48.41673" lon="7.34972">
        <ele>804</ele>
        <time>2022-06-09T15:57:39Z</time>
      </trkpt>
      <trkpt lat="48.41564" lon="7.34801">
        <ele>796</ele>
        <time>2022-06-09T15:58:07Z</time>
      </trkpt>
      <trkpt lat="48.41491" lon="7.34796">
        <ele>789</ele>
        <time>2022-06-09T15:58:20Z</time>
      </trkpt>
      <trkpt lat="48.41382" lon="7.3499">
        <ele>784</ele>
        <time>2022-06-09T15:58:50Z</time>
      </trkpt>
      <trkpt lat="48.41442" lon="7.34765">
        <ele>782</ele>
        <time>2022-06-09T15:59:19Z</time>
      </trkpt>
      <trkpt lat="48.41664" lon="7.34389">
        <ele>759</ele>
        <time>2022-06-09T16:00:18Z</time>
      </trkpt>
      <trkpt lat="48.41747" lon="7.3396">
        <ele>753</ele>
        <time>2022-06-09T16:01:11Z</time>
      </trkpt>
      <trkpt lat="48.41559" lon="7.33857">
        <ele>756</ele>
        <time>2022-06-09T16:01:47Z</time>
      </trkpt>
      <trkpt lat="48.41416" lon="7.34037">
        <ele>717</ele>
        <time>2022-06-09T16:02:20Z</time>
      </trkpt>
      <trkpt lat="48.40772" lon="7.33994">
        <ele>652</ele>
        <time>2022-06-09T16:04:15Z</time>
      </trkpt>
      <trkpt lat="48.40328" lon="7.33445">
        <ele>618</ele>
        <time>2022-06-09T16:05:57Z</time>
      </trkpt>
      <trkpt lat="48.403" lon="7.33282">
        <ele>602</ele>
        <time>2022-06-09T16:06:17Z</time>
      </trkpt>
      <trkpt lat="48.40476" lon="7.33179">
        <ele>596</ele>
        <time>2022-06-09T16:06:50Z</time>
      </trkpt>
      <trkpt lat="48.40328" lon="7.3299">
        <ele>570</ele>
        <time>2022-06-09T16:07:25Z</time>
      </trkpt>
      <trkpt lat="48.40408" lon="7.32835">
        <ele>573</ele>
        <time>2022-06-09T16:07:48Z</time>
      </trkpt>
      <trkpt lat="48.40328" lon="7.32406">
        <ele>594</ele>
        <time>2022-06-09T16:08:41Z</time>
      </trkpt>
      <trkpt lat="48.40539" lon="7.32277">
        <ele>613</ele>
        <time>2022-06-09T16:09:21Z</time>
      </trkpt>
      <trkpt lat="48.40584" lon="7.32063">
        <ele>629</ele>
        <time>2022-06-09T16:09:48Z</time>
      </trkpt>
      <trkpt lat="48.40505" lon="7.31719">
        <ele>645</ele>
        <time>2022-06-09T16:10:31Z</time>
      </trkpt>
      <trkpt lat="48.40396" lon="7.31625">
        <ele>634</ele>
        <time>2022-06-09T16:10:53Z</time>
      </trkpt>
      <trkpt lat="48.40248" lon="7.31059">
        <ele>647</ele>
        <time>2022-06-09T16:12:05Z</time>
      </trkpt>
      <trkpt lat="48.39986" lon="7.30844">
        <ele>639</ele>
        <time>2022-06-09T16:12:58Z</time>
      </trkpt>
      <trkpt lat="48.39998" lon="7.31196">
        <ele>655</ele>
        <time>2022-06-09T16:13:40Z</time>
      </trkpt>
      <trkpt lat="48.3949" lon="7.30672">
        <ele>701</ele>
        <time>2022-06-09T16:15:29Z</time>
      </trkpt>
      <trkpt lat="48.39456" lon="7.30466">
        <ele>702</ele>
        <time>2022-06-09T16:15:54Z</time>
      </trkpt>
      <trkpt lat="48.39017" lon="7.29951">
        <ele>726</ele>
        <time>2022-06-09T16:17:33Z</time>
      </trkpt>
      <trkpt lat="48.39148" lon="7.29797">
        <ele>738</ele>
        <time>2022-06-09T16:18:03Z</time>
      </trkpt>
      <trkpt lat="48.39103" lon="7.29565">
        <ele>742</ele>
        <time>2022-06-09T16:18:31Z</time>
      </trkpt>
      <trkpt lat="48.38744" lon="7.29393">
        <ele>772</ele>
        <time>2022-06-09T16:19:38Z</time>
      </trkpt>
      <trkpt lat="48.38271" lon="7.2887">
        <ele>749</ele>
        <time>2022-06-09T16:21:23Z</time>
      </trkpt>
      <trkpt lat="48.38025" lon="7.28612">
        <ele>739</ele>
        <time>2022-06-09T16:22:16Z</time>
      </trkpt>
      <trkpt lat="48.38174" lon="7.2893">
        <ele>704</ele>
        <time>2022-06-09T16:23:02Z</time>
      </trkpt>
      <trkpt lat="48.38259" lon="7.29368">
        <ele>680</ele>
        <time>2022-06-09T16:23:56Z</time>
      </trkpt>
      <trkpt lat="48.37923" lon="7.28921">
        <ele>623</ele>
        <time>2022-06-09T16:25:16Z</time>
      </trkpt>
      <trkpt lat="48.37661" lon="7.28492">
        <ele>623</ele>
        <time>2022-06-09T16:26:25Z</time>
      </trkpt>
      <trkpt lat="48.3745" lon="7.28647">
        <ele>578</ele>
        <time>2022-06-09T16:27:07Z</time>
      </trkpt>
      <trkpt lat="48.37187" lon="7.28544">
        <ele>545</ele>
        <time>2022-06-09T16:27:55Z</time>
      </trkpt>
      <trkpt lat="48.37136" lon="7.28218">
        <ele>545</ele>
        <time>2022-06-09T16:28:35Z</time>
      </trkpt>
      <trkpt lat="48.36925" lon="7.279">
        <ele>501</ele>
        <time>2022-06-09T16:29:28Z</time>
      </trkpt>
      <trkpt lat="48.36999" lon="7.28364">
        <ele>483</ele>
        <time>2022-06-09T16:30:24Z</time>
      </trkpt>
      <trkpt lat="48.36919" lon="7.28767">
        <ele>458</ele>
        <time>2022-06-09T16:31:14Z</time>
      </trkpt>
      <trkpt lat="48.36743" lon="7.28887">
        <ele>436</ele>
        <time>2022-06-09T16:31:48Z</time>
      </trkpt>
      <trkpt lat="48.37051" lon="7.29248">
        <ele>422</ele>
        <time>2022-06-09T16:32:58Z</time>
      </trkpt>
      <trkpt lat="48.36589" lon="7.29239">
        <ele>376</ele>
        <time>2022-06-09T16:34:20Z</time>
      </trkpt>
      <trkpt lat="48.36446" lon="7.29187">
        <ele>361</ele>
        <time>2022-06-09T16:34:46Z</time>
      </trkpt>
      <trkpt lat="48.36401" lon="7.28767">
        <ele>358</ele>
        <time>2022-06-09T16:35:36Z</time>
      </trkpt>
      <trkpt lat="48.36098" lon="7.28981">
        <ele>337</ele>
        <time>2022-06-09T16:36:36Z</time>
      </trkpt>
      <trkpt lat="48.35864" lon="7.28818">
        <ele>322</ele>
        <time>2022-06-09T16:37:22Z</time>
      </trkpt>
      <trkpt lat="48.35465" lon="7.28776">
        <ele>313</ele>
        <time>2022-06-09T16:38:33Z</time>
      </trkpt>
      <trkpt lat="48.3502" lon="7.28939">
        <ele>287</ele>
        <time>2022-06-09T16:39:54Z</time>
      </trkpt>
      <trkpt lat="48.34701" lon="7.29969">
        <ele>281</ele>
        <time>2022-06-09T16:42:09Z</time>
      </trkpt>
      <trkpt lat="48.34567" lon="7.30308">
        <ele>276</ele>
        <time>2022-06-09T16:42:55Z</time>
      </trkpt>
      <trkpt lat="48.34444" lon="7.30501">
        <ele>271</ele>
        <time>2022-06-09T16:43:27Z</time>
      </trkpt>
      <trkpt lat="48.34304" lon="7.30372">
        <ele>265</ele>
        <time>2022-06-09T16:43:56Z</time>
      </trkpt>
      <trkpt lat="48.34176" lon="7.30157">
        <ele>267</ele>
        <time>2022-06-09T16:44:30Z</time>
      </trkpt>
      <trkpt lat="48.34059" lon="7.299">
        <ele>267</ele>
        <time>2022-06-09T16:45:07Z</time>
      </trkpt>
      <trkpt lat="48.33932" lon="7.29946">
        <ele>270</ele>
        <time>2022-06-09T16:45:30Z</time>
      </trkpt>
      <trkpt lat="48.33922" lon="7.3018">
        <ele>280</ele>
        <time>2022-06-09T16:45:58Z</time>
      </trkpt>
      <trkpt lat="48.33881" lon="7.30252">
        <ele>281</ele>
        <time>2022-06-09T16:46:09Z</time>
      </trkpt>
      <trkpt lat="48.336" lon="7.2965">
        <ele>304</ele>
        <time>2022-06-09T16:47:36Z</time>
      </trkpt>
      <trkpt lat="48.33339" lon="7.29338">
        <ele>313</ele>
        <time>2022-06-09T16:48:36Z</time>
      </trkpt>
      <trkpt lat="48.33206" lon="7.29265">
        <ele>319</ele>
        <time>2022-06-09T16:49:01Z</time>
      </trkpt>
      <trkpt lat="48.32655" lon="7.29243">
        <ele>334</ele>
        <time>2022-06-09T16:50:39Z</time>
      </trkpt>
      <trkpt lat="48.32476" lon="7.29282">
        <ele>340</ele>
        <time>2022-06-09T16:51:11Z</time>
      </trkpt>
      <trkpt lat="48.32202" lon="7.28986">
        <ele>361</ele>
        <time>2022-06-09T16:52:11Z</time>
      </trkpt>
      <trkpt lat="48.3187" lon="7.28863">
        <ele>395</ele>
        <time>2022-06-09T16:53:12Z</time>
      </trkpt>
      <trkpt lat="48.31356" lon="7.2895">
        <ele>419</ele>
        <time>2022-06-09T16:54:44Z</time>
      </trkpt>
      <trkpt lat="48.3103" lon="7.29101">
        <ele>468</ele>
        <time>2022-06-09T16:55:45Z</time>
      </trkpt>
      <trkpt lat="48.30924" lon="7.29325">
        <ele>476</ele>
        <time>2022-06-09T16:56:17Z</time>
      </trkpt>
      <trkpt lat="48.30929" lon="7.28798">
        <ele>513</ele>
        <time>2022-06-09T16:57:20Z</time>
      </trkpt>
      <trkpt lat="48.30708" lon="7.28416">
        <ele>536</ele>
        <time>2022-06-09T16:58:20Z</time>
      </trkpt>
      <trkpt lat="48.3043" lon="7.28242">
        <ele>579</ele>
        <time>2022-06-09T16:59:13Z</time>
      </trkpt>
      <trkpt lat="48.30252" lon="7.28372">
        <ele>610</ele>
        <time>2022-06-09T16:59:48Z</time>
      </trkpt>
      <trkpt lat="48.30636" lon="7.28567">
        <ele>613</ele>
        <time>2022-06-09T17:01:00Z</time>
      </trkpt>
      <trkpt lat="48.30776" lon="7.28885">
        <ele>600</ele>
        <time>2022-06-09T17:01:46Z</time>
      </trkpt>
      <trkpt lat="48.30497" lon="7.2957">
        <ele>634</ele>
        <time>2022-06-09T17:03:21Z</time>
      </trkpt>
      <trkpt lat="48.30305" lon="7.29996">
        <ele>674</ele>
        <time>2022-06-09T17:04:22Z</time>
      </trkpt>
      <trkpt lat="48.30238" lon="7.30408">
        <ele>709</ele>
        <time>2022-06-09T17:05:12Z</time>
      </trkpt>
      <trkpt lat="48.29907" lon="7.31259">
        <ele>708</ele>
        <time>2022-06-09T17:07:08Z</time>
      </trkpt>
      <trkpt lat="48.29671" lon="7.31613">
        <ele>712</ele>
        <time>2022-06-09T17:08:08Z</time>
      </trkpt>
      <trkpt lat="48.29431" lon="7.31692">
        <ele>695</ele>
        <time>2022-06-09T17:08:51Z</time>
      </trkpt>
      <trkpt lat="48.29239" lon="7.31303">
        <ele>702</ele>
        <time>2022-06-09T17:09:49Z</time>
      </trkpt>
      <trkpt lat="48.29206" lon="7.30826">
        <ele>652</ele>
        <time>2022-06-09T17:10:46Z</time>
      </trkpt>
      <trkpt lat="48.29018" lon="7.30473">
        <ele>619</ele>
        <time>2022-06-09T17:11:39Z</time>
      </trkpt>
      <trkpt lat="48.29148" lon="7.29513">
        <ele>597</ele>
        <time>2022-06-09T17:13:35Z</time>
      </trkpt>
      <trkpt lat="48.28668" lon="7.29397">
        <ele>556</ele>
        <time>2022-06-09T17:15:02Z</time>
      </trkpt>
      <trkpt lat="48.28202" lon="7.29354">
        <ele>512</ele>
        <time>2022-06-09T17:16:25Z</time>
      </trkpt>
      <trkpt lat="48.28596" lon="7.29801">
        <ele>444</ele>
        <time>2022-06-09T17:17:53Z</time>
      </trkpt>
      <trkpt lat="48.28676" lon="7.29836">
        <ele>438</ele>
        <time>2022-06-09T17:18:07Z</time>
      </trkpt>
      <trkpt lat="48.28505" lon="7.30097">
        <ele>409</ele>
        <time>2022-06-09T17:18:51Z</time>
      </trkpt>
      <trkpt lat="48.28357" lon="7.30224">
        <ele>395</ele>
        <time>2022-06-09T17:19:21Z</time>
      </trkpt>
      <trkpt lat="48.28373" lon="7.30306">
        <ele>394</ele>
        <time>2022-06-09T17:19:31Z</time>
      </trkpt>
      <trkpt lat="48.28257" lon="7.3035">
        <ele>386</ele>
        <time>2022-06-09T17:19:52Z</time>
      </trkpt>
      <trkpt lat="48.28136" lon="7.30282">
        <ele>373</ele>
        <time>2022-06-09T17:20:15Z</time>
      </trkpt>
      <trkpt lat="48.28085" lon="7.30163">
        <ele>364</ele>
        <time>2022-06-09T17:20:32Z</time>
      </trkpt>
      <trkpt lat="48.27999" lon="7.30053">
        <ele>353</ele>
        <time>2022-06-09T17:20:52Z</time>
      </trkpt>
      <trkpt lat="48.27863" lon="7.29971">
        <ele>342</ele>
        <time>2022-06-09T17:21:18Z</time>
      </trkpt>
      <trkpt lat="48.2778" lon="7.29961">
        <ele>337</ele>
        <time>2022-06-09T17:21:33Z</time>
      </trkpt>
      <trkpt lat="48.27646" lon="7.29762">
        <ele>318</ele>
        <time>2022-06-09T17:22:07Z</time>
      </trkpt>
      <trkpt lat="48.27478" lon="7.29492">
        <ele>297</ele>
        <time>2022-06-09T17:22:50Z</time>
      </trkpt>
      <trkpt lat="48.27274" lon="7.29109">
        <ele>277</ele>
        <time>2022-06-09T17:23:49Z</time>
      </trkpt>
      <trkpt lat="48.27191" lon="7.28941">
        <ele>269</ele>
        <time>2022-06-09T17:24:13Z</time>
      </trkpt>
      <trkpt lat="48.27265" lon="7.28904">
        <ele>272</ele>
        <time>2022-06-09T17:24:27Z</time>
      </trkpt>
      <trkpt lat="48.27302" lon="7.28854">
        <ele>275</ele>
        <time>2022-06-09T17:24:36Z</time>
      </trkpt>
      <trkpt lat="48.27238" lon="7.28655">
        <ele>273</ele>
        <time>2022-06-09T17:25:02Z</time>
      </trkpt>
      <trkpt lat="48.27281" lon="7.28452">
        <ele>275</ele>
        <time>2022-06-09T17:25:27Z</time>
      </trkpt>
      <trkpt lat="48.27306" lon="7.28254">
        <ele>280</ele>
        <time>2022-06-09T17:25:51Z</time>
      </trkpt>
      <trkpt lat="48.27345" lon="7.28057">
        <ele>275</ele>
        <time>2022-06-09T17:26:16Z</time>
      </trkpt>
      <trkpt lat="48.27433" lon="7.28019">
        <ele>281</ele>
        <time>2022-06-09T17:26:32Z</time>
      </trkpt>
      <trkpt lat="48.27693" lon="7.27841">
        <ele>286</ele>
        <time>2022-06-09T17:27:23Z</time>
      </trkpt>
      <trkpt lat="48.27766" lon="7.2767">
        <ele>288</ele>
        <time>2022-06-09T17:27:47Z</time>
      </trkpt>
      <trkpt lat="48.27771" lon="7.27305">
        <ele>290</ele>
        <time>2022-06-09T17:28:30Z</time>
      </trkpt>
      <trkpt lat="48.28048" lon="7.26741">
        <ele>298</ele>
        <time>2022-06-09T17:29:53Z</time>
      </trkpt>
      <trkpt lat="48.28422" lon="7.26098">
        <ele>306</ele>
        <time>2022-06-09T17:31:34Z</time>
      </trkpt>
      <trkpt lat="48.28486" lon="7.26225">
        <ele>315</ele>
        <time>2022-06-09T17:31:53Z</time>
      </trkpt>
      <trkpt lat="48.28682" lon="7.26261">
        <ele>336</ele>
        <time>2022-06-09T17:32:28Z</time>
      </trkpt>
      <trkpt lat="48.2869" lon="7.26212">
        <ele>339</ele>
        <time>2022-06-09T17:32:34Z</time>
      </trkpt>
      <trkpt lat="48.28542" lon="7.26054">
        <ele>325</ele>
        <time>2022-06-09T17:33:06Z</time>
      </trkpt>
      <trkpt lat="48.28603" lon="7.25985">
        <ele>340</ele>
        <time>2022-06-09T17:33:20Z</time>
      </trkpt>
      <trkpt lat="48.28779" lon="7.25793">
        <ele>355</ele>
        <time>2022-06-09T17:33:59Z</time>
      </trkpt>
      <trkpt lat="48.2897" lon="7.25761">
        <ele>364</ele>
        <time>2022-06-09T17:34:33Z</time>
      </trkpt>
      <trkpt lat="48.2901" lon="7.25926">
        <ele>395</ele>
        <time>2022-06-09T17:34:54Z</time>
      </trkpt>
      <trkpt lat="48.29193" lon="7.25896">
        <ele>408</ele>
        <time>2022-06-09T17:35:26Z</time>
      </trkpt>
      <trkpt lat="48.2925" lon="7.25711">
        <ele>406</ele>
        <time>2022-06-09T17:35:51Z</time>
      </trkpt>
      <trkpt lat="48.29416" lon="7.25587">
        <ele>435</ele>
        <time>2022-06-09T17:36:24Z</time>
      </trkpt>
      <trkpt lat="48.29878" lon="7.25312">
        <ele>459</ele>
        <time>2022-06-09T17:37:52Z</time>
      </trkpt>
      <trkpt lat="48.29541" lon="7.2563">
        <ele>495</ele>
        <time>2022-06-09T17:39:03Z</time>
      </trkpt>
      <trkpt lat="48.2957" lon="7.26003">
        <ele>515</ele>
        <time>2022-06-09T17:39:47Z</time>
      </trkpt>
      <trkpt lat="48.29601" lon="7.25638">
        <ele>521</ele>
        <time>2022-06-09T17:40:31Z</time>
      </trkpt>
      <trkpt lat="48.29773" lon="7.25673">
        <ele>550</ele>
        <time>2022-06-09T17:41:02Z</time>
      </trkpt>
      <trkpt lat="48.30018" lon="7.25754">
        <ele>571</ele>
        <time>2022-06-09T17:41:46Z</time>
      </trkpt>
      <trkpt lat="48.30329" lon="7.26055">
        <ele>605</ele>
        <time>2022-06-09T17:42:52Z</time>
      </trkpt>
      <trkpt lat="48.30475" lon="7.26038">
        <ele>610</ele>
        <time>2022-06-09T17:43:18Z</time>
      </trkpt>
      <trkpt lat="48.30789" lon="7.26939">
        <ele>556</ele>
        <time>2022-06-09T17:45:19Z</time>
      </trkpt>
      <trkpt lat="48.31164" lon="7.27181">
        <ele>546</ele>
        <time>2022-06-09T17:46:31Z</time>
      </trkpt>
      <trkpt lat="48.31136" lon="7.26871">
        <ele>494</ele>
        <time>2022-06-09T17:47:08Z</time>
      </trkpt>
      <trkpt lat="48.30948" lon="7.26784">
        <ele>502</ele>
        <time>2022-06-09T17:47:43Z</time>
      </trkpt>
      <trkpt lat="48.31467" lon="7.26784">
        <ele>469</ele>
        <time>2022-06-09T17:49:16Z</time>
      </trkpt>
      <trkpt lat="48.31265" lon="7.26496">
        <ele>414</ele>
        <time>2022-06-09T17:50:05Z</time>
      </trkpt>
      <trkpt lat="48.31448" lon="7.26005">
        <ele>394</ele>
        <time>2022-06-09T17:51:12Z</time>
      </trkpt>
      <trkpt lat="48.32067" lon="7.25774">
        <ele>354</ele>
        <time>2022-06-09T17:53:05Z</time>
      </trkpt>
      <trkpt lat="48.32369" lon="7.25853">
        <ele>332</ele>
        <time>2022-06-09T17:54:00Z</time>
      </trkpt>
      <trkpt lat="48.32513" lon="7.26135">
        <ele>324</ele>
        <time>2022-06-09T17:54:42Z</time>
      </trkpt>
      <trkpt lat="48.32345" lon="7.25413">
        <ele>349</ele>
        <time>2022-06-09T17:56:12Z</time>
      </trkpt>
      <trkpt lat="48.32527" lon="7.24518">
        <ele>361</ele>
        <time>2022-06-09T17:58:03Z</time>
      </trkpt>
      <trkpt lat="48.32441" lon="7.23666">
        <ele>373</ele>
        <time>2022-06-09T17:59:45Z</time>
      </trkpt>
      <trkpt lat="48.32311" lon="7.23277">
        <ele>384</ele>
        <time>2022-06-09T18:00:36Z</time>
      </trkpt>
      <trkpt lat="48.32705" lon="7.22259">
        <ele>404</ele>
        <time>2022-06-09T18:02:56Z</time>
      </trkpt>
      <trkpt lat="48.3259" lon="7.21119">
        <ele>412</ele>
        <time>2022-06-09T18:05:12Z</time>
      </trkpt>
      <trkpt lat="48.32599" lon="7.20823">
        <ele>431</ele>
        <time>2022-06-09T18:05:47Z</time>
      </trkpt>
      <trkpt lat="48.33017" lon="7.20585">
        <ele>451</ele>
        <time>2022-06-09T18:07:07Z</time>
      </trkpt>
      <trkpt lat="48.33055" lon="7.19906">
        <ele>481</ele>
        <time>2022-06-09T18:08:27Z</time>
      </trkpt>
      <trkpt lat="48.33247" lon="7.19437">
        <ele>500</ele>
        <time>2022-06-09T18:09:33Z</time>
      </trkpt>
      <trkpt lat="48.33343" lon="7.19437">
        <ele>515</ele>
        <time>2022-06-09T18:09:50Z</time>
      </trkpt>
      <trkpt lat="48.33156" lon="7.20144">
        <ele>516</ele>
        <time>2022-06-09T18:11:20Z</time>
      </trkpt>
      <trkpt lat="48.33371" lon="7.19662">
        <ele>565</ele>
        <time>2022-06-09T18:12:28Z</time>
      </trkpt>
      <trkpt lat="48.33476" lon="7.19573">
        <ele>592</ele>
        <time>2022-06-09T18:12:50Z</time>
      </trkpt>
      <trkpt lat="48.33398" lon="7.19741">
        <ele>585</ele>
        <time>2022-06-09T18:13:14Z</time>
      </trkpt>
      <trkpt lat="48.33386" lon="7.19957">
        <ele>589</ele>
        <time>2022-06-09T18:13:40Z</time>
      </trkpt>
      <trkpt lat="48.33508" lon="7.19708">
        <ele>623</ele>
        <time>2022-06-09T18:14:16Z</time>
      </trkpt>
      <trkpt lat="48.33622" lon="7.19512">
        <ele>643</ele>
        <time>2022-06-09T18:14:47Z</time>
      </trkpt>
      <trkpt lat="48.33824" lon="7.19358">
        <ele>656</ele>
        <time>2022-06-09T18:15:27Z</time>
      </trkpt>
      <trkpt lat="48.33946" lon="7.19295">
        <ele>658</ele>
        <time>2022-06-09T18:15:50Z</time>
      </trkpt>
      <trkpt lat="48.341" lon="7.18981">
        <ele>669</ele>
        <time>2022-06-09T18:16:36Z</time>
      </trkpt>
      <trkpt lat="48.34088" lon="7.1883">
        <ele>689</ele>
        <time>2022-06-09T18:16:54Z</time>
      </trkpt>
      <trkpt lat="48.34221" lon="7.19036">
        <ele>685</ele>
        <time>2022-06-09T18:17:28Z</time>
      </trkpt>
      <trkpt lat="48.34797" lon="7.19109">
        <ele>685</ele>
        <time>2022-06-09T18:19:11Z</time>
      </trkpt>
      <trkpt lat="48.35291" lon="7.18091">
        <ele>677</ele>
        <time>2022-06-09T18:21:40Z</time>
      </trkpt>
      <trkpt lat="48.35449" lon="7.17817">
        <ele>651</ele>
        <time>2022-06-09T18:22:23Z</time>
      </trkpt>
      <trkpt lat="48.35799" lon="7.17658">
        <ele>616</ele>
        <time>2022-06-09T18:23:28Z</time>
      </trkpt>
      <trkpt lat="48.3602" lon="7.17788">
        <ele>597</ele>
        <time>2022-06-09T18:24:10Z</time>
      </trkpt>
      <trkpt lat="48.35967" lon="7.1742">
        <ele>593</ele>
        <time>2022-06-09T18:24:55Z</time>
      </trkpt>
      <trkpt lat="48.36029" lon="7.1703">
        <ele>573</ele>
        <time>2022-06-09T18:25:42Z</time>
      </trkpt>
      <trkpt lat="48.35929" lon="7.16343">
        <ele>560</ele>
        <time>2022-06-09T18:27:06Z</time>
      </trkpt>
      <trkpt lat="48.35654" lon="7.15189">
        <ele>538</ele>
        <time>2022-06-09T18:29:30Z</time>
      </trkpt>
      <trkpt lat="48.35775" lon="7.14061">
        <ele>513</ele>
        <time>2022-06-09T18:31:46Z</time>
      </trkpt>
      <trkpt lat="48.36009" lon="7.13077">
        <ele>522</ele>
        <time>2022-06-09T18:33:49Z</time>
      </trkpt>
      <trkpt lat="48.3617" lon="7.12751">
        <ele>537</ele>
        <time>2022-06-09T18:34:37Z</time>
      </trkpt>
      <trkpt lat="48.36446" lon="7.1289">
        <ele>544</ele>
        <time>2022-06-09T18:35:29Z</time>
      </trkpt>
      <trkpt lat="48.36472" lon="7.13023">
        <ele>538</ele>
        <time>2022-06-09T18:35:45Z</time>
      </trkpt>
      <trkpt lat="48.36637" lon="7.13084">
        <ele>541</ele>
        <time>2022-06-09T18:36:16Z</time>
      </trkpt>
      <trkpt lat="48.36785" lon="7.13023">
        <ele>553</ele>
        <time>2022-06-09T18:36:43Z</time>
      </trkpt>
      <trkpt lat="48.36959" lon="7.13075">
        <ele>554</ele>
        <time>2022-06-09T18:37:14Z</time>
      </trkpt>
      <trkpt lat="48.37088" lon="7.13161">
        <ele>550</ele>
        <time>2022-06-09T18:37:39Z</time>
      </trkpt>
      <trkpt lat="48.37222" lon="7.13169">
        <ele>547</ele>
        <time>2022-06-09T18:38:03Z</time>
      </trkpt>
      <trkpt lat="48.37304" lon="7.13234">
        <ele>540</ele>
        <time>2022-06-09T18:38:20Z</time>
      </trkpt>
      <trkpt lat="48.3735" lon="7.12423">
        <ele>543</ele>
        <time>2022-06-09T18:39:56Z</time>
      </trkpt>
      <trkpt lat="48.37498" lon="7.12663">
        <ele>546</ele>
        <time>2022-06-09T18:40:35Z</time>
      </trkpt>
      <trkpt lat="48.37638" lon="7.13049">
        <ele>539</ele>
        <time>2022-06-09T18:41:27Z</time>
      </trkpt>
      <trkpt lat="48.37795" lon="7.13358">
        <ele>529</ele>
        <time>2022-06-09T18:42:13Z</time>
      </trkpt>
      <trkpt lat="48.38168" lon="7.13534">
        <ele>538</ele>
        <time>2022-06-09T18:43:22Z</time>
      </trkpt>
      <trkpt lat="48.38325" lon="7.13457">
        <ele>538</ele>
        <time>2022-06-09T18:43:52Z</time>
      </trkpt>
      <trkpt lat="48.38524" lon="7.13641">
        <ele>531</ele>
        <time>2022-06-09T18:44:33Z</time>
      </trkpt>
      <trkpt lat="48.3871" lon="7.13714">
        <ele>518</ele>
        <time>2022-06-09T18:45:07Z</time>
      </trkpt>
      <trkpt lat="48.38849" lon="7.13603">
        <ele>508</ele>
        <time>2022-06-09T18:45:35Z</time>
      </trkpt>
      <trkpt lat="48.389" lon="7.1344">
        <ele>506</ele>
        <time>2022-06-09T18:45:57Z</time>
      </trkpt>
      <trkpt lat="48.39014" lon="7.13392">
        <ele>499</ele>
        <time>2022-06-09T18:46:18Z</time>
      </trkpt>
      <trkpt lat="48.39035" lon="7.13315">
        <ele>502</ele>
        <time>2022-06-09T18:46:28Z</time>
      </trkpt>
      <trkpt lat="48.39176" lon="7.13116">
        <ele>497</ele>
        <time>2022-06-09T18:47:02Z</time>
      </trkpt>
      <trkpt lat="48.39213" lon="7.13019">
        <ele>492</ele>
        <time>2022-06-09T18:47:15Z</time>
      </trkpt>
      <trkpt lat="48.39337" lon="7.12932">
        <ele>485</ele>
        <time>2022-06-09T18:47:40Z</time>
      </trkpt>
      <trkpt lat="48.39488" lon="7.12957">
        <ele>484</ele>
        <time>2022-06-09T18:48:07Z</time>
      </trkpt>
      <trkpt lat="48.3954" lon="7.13077">
        <ele>485</ele>
        <time>2022-06-09T18:48:23Z</time>
      </trkpt>
      <trkpt lat="48.39723" lon="7.13036">
        <ele>489</ele>
        <time>2022-06-09T18:48:56Z</time>
      </trkpt>
      <trkpt lat="48.39967" lon="7.13284">
        <ele>505</ele>
        <time>2022-06-09T18:49:49Z</time>
      </trkpt>
      <trkpt lat="48.40226" lon="7.13363">
        <ele>486</ele>
        <time>2022-06-09T18:50:36Z</time>
      </trkpt>
      <trkpt lat="48.40617" lon="7.13407">
        <ele>448</ele>
        <time>2022-06-09T18:51:46Z</time>
      </trkpt>
      <trkpt lat="48.41062" lon="7.12995">
        <ele>455</ele>
        <time>2022-06-09T18:53:18Z</time>
      </trkpt>
      <trkpt lat="48.41307" lon="7.12663">
        <ele>467</ele>
        <time>2022-06-09T18:54:17Z</time>
      </trkpt>
      <trkpt lat="48.41632" lon="7.12454">
        <ele>467</ele>
        <time>2022-06-09T18:55:20Z</time>
      </trkpt>
      <trkpt lat="48.41678" lon="7.12766">
        <ele>477</ele>
        <time>2022-06-09T18:55:58Z</time>
      </trkpt>
      <trkpt lat="48.41681" lon="7.13156">
        <ele>507</ele>
        <time>2022-06-09T18:56:44Z</time>
      </trkpt>
      <trkpt lat="48.41644" lon="7.13435">
        <ele>505</ele>
        <time>2022-06-09T18:57:17Z</time>
      </trkpt>
      <trkpt lat="48.41687" lon="7.13749">
        <ele>497</ele>
        <time>2022-06-09T18:57:55Z</time>
      </trkpt>
      <trkpt lat="48.41767" lon="7.14028">
        <ele>505</ele>
        <time>2022-06-09T18:58:31Z</time>
      </trkpt>
      <trkpt lat="48.4177" lon="7.14148">
        <ele>507</ele>
        <time>2022-06-09T18:58:45Z</time>
      </trkpt>
      <trkpt lat="48.41784" lon="7.14292">
        <ele>496</ele>
        <time>2022-06-09T18:59:03Z</time>
      </trkpt>
      <trkpt lat="48.41786" lon="7.14483">
        <ele>486</ele>
        <time>2022-06-09T18:59:25Z</time>
      </trkpt>
      <trkpt lat="48.41807" lon="7.14565">
        <ele>481</ele>
        <time>2022-06-09T18:59:35Z</time>
      </trkpt>
      <trkpt lat="48.41902" lon="7.14573">
        <ele>484</ele>
        <time>2022-06-09T18:59:52Z</time>
      </trkpt>
      <trkpt lat="48.41925" lon="7.14677">
        <ele>488</ele>
        <time>2022-06-09T19:00:05Z</time>
      </trkpt>
      <trkpt lat="48.41917" lon="7.14756">
        <ele>492</ele>
        <time>2022-06-09T19:00:15Z</time>
      </trkpt>
      <trkpt lat="48.42095" lon="7.15121">
        <ele>498</ele>
        <time>2022-06-09T19:01:08Z</time>
      </trkpt>
      <trkpt lat="48.42338" lon="7.15262">
        <ele>511</ele>
        <time>2022-06-09T19:01:55Z</time>
      </trkpt>
      <trkpt lat="48.42351" lon="7.15205">
        <ele>511</ele>
        <time>2022-06-09T19:02:02Z</time>
      </trkpt>
      <trkpt lat="48.42415" lon="7.15099">
        <ele>520</ele>
        <time>2022-06-09T19:02:19Z</time>
      </trkpt>
      <trkpt lat="48.42421" lon="7.15025">
        <ele>525</ele>
        <time>2022-06-09T19:02:27Z</time>
      </trkpt>
      <trkpt lat="48.42453" lon="7.14979">
        <ele>536</ele>
        <time>2022-06-09T19:02:35Z</time>
      </trkpt>
      <trkpt lat="48.42581" lon="7.1506">
        <ele>553</ele>
        <time>2022-06-09T19:03:00Z</time>
      </trkpt>
      <trkpt lat="48.42602" lon="7.15149">
        <ele>553</ele>
        <time>2022-06-09T19:03:11Z</time>
      </trkpt>
      <trkpt lat="48.42648" lon="7.15199">
        <ele>560</ele>
        <time>2022-06-09T19:03:21Z</time>
      </trkpt>
      <trkpt lat="48.4284" lon="7.15219">
        <ele>572</ele>
        <time>2022-06-09T19:03:55Z</time>
      </trkpt>
      <trkpt lat="48.42893" lon="7.15043">
        <ele>585</ele>
        <time>2022-06-09T19:04:18Z</time>
      </trkpt>
      <trkpt lat="48.4299" lon="7.14956">
        <ele>594</ele>
        <time>2022-06-09T19:04:38Z</time>
      </trkpt>
      <trkpt lat="48.4316" lon="7.15001">
        <ele>591</ele>
        <time>2022-06-09T19:05:09Z</time>
      </trkpt>
      <trkpt lat="48.43214" lon="7.14922">
        <ele>592</ele>
        <time>2022-06-09T19:05:22Z</time>
      </trkpt>
      <trkpt lat="48.43295" lon="7.14825">
        <ele>601</ele>
        <time>2022-06-09T19:05:41Z</time>
      </trkpt>
      <trkpt lat="48.43383" lon="7.14869">
        <ele>581</ele>
        <time>2022-06-09T19:05:57Z</time>
      </trkpt>
      <trkpt lat="48.43615" lon="7.14374">
        <ele>605</ele>
        <time>2022-06-09T19:07:09Z</time>
      </trkpt>
      <trkpt lat="48.43729" lon="7.14149">
        <ele>620</ele>
        <time>2022-06-09T19:07:42Z</time>
      </trkpt>
      <trkpt lat="48.43934" lon="7.14002">
        <ele>628</ele>
        <time>2022-06-09T19:08:23Z</time>
      </trkpt>
      <trkpt lat="48.44132" lon="7.14013">
        <ele>626</ele>
        <time>2022-06-09T19:08:58Z</time>
      </trkpt>
      <trkpt lat="48.44262" lon="7.14771">
        <ele>601</ele>
        <time>2022-06-09T19:10:30Z</time>
      </trkpt>
      <trkpt lat="48.44472" lon="7.15067">
        <ele>579</ele>
        <time>2022-06-09T19:11:22Z</time>
      </trkpt>
      <trkpt lat="48.44788" lon="7.1537">
        <ele>555</ele>
        <time>2022-06-09T19:12:28Z</time>
      </trkpt>
      <trkpt lat="48.44855" lon="7.15168">
        <ele>567</ele>
        <time>2022-06-09T19:12:55Z</time>
      </trkpt>
      <trkpt lat="48.45042" lon="7.15262">
        <ele>547</ele>
        <time>2022-06-09T19:13:30Z</time>
      </trkpt>
      <trkpt lat="48.45186" lon="7.14879">
        <ele>571</ele>
        <time>2022-06-09T19:14:22Z</time>
      </trkpt>
      <trkpt lat="48.45411" lon="7.16272">
        <ele>485</ele>
        <time>2022-06-09T19:17:11Z</time>
      </trkpt>
      <trkpt lat="48.45439" lon="7.16893">
        <ele>466</ele>
        <time>2022-06-09T19:18:25Z</time>
      </trkpt>
      <trkpt lat="48.45918" lon="7.17694">
        <ele>438</ele>
        <time>2022-06-09T19:20:32Z</time>
      </trkpt>
      <trkpt lat="48.46014" lon="7.18048">
        <ele>422</ele>
        <time>2022-06-09T19:21:17Z</time>
      </trkpt>
      <trkpt lat="48.46014" lon="7.18676">
        <ele>382</ele>
        <time>2022-06-09T19:22:31Z</time>
      </trkpt>
      <trkpt lat="48.4598" lon="7.19058">
        <ele>372</ele>
        <time>2022-06-09T19:23:16Z</time>
      </trkpt>
      <trkpt lat="48.46191" lon="7.19621">
        <ele>357</ele>
        <time>2022-06-09T19:24:33Z</time>
      </trkpt>
      <trkpt lat="48.46176" lon="7.20307">
        <ele>339</ele>
        <time>2022-06-09T19:25:54Z</time>
      </trkpt>
      <trkpt lat="48.46239" lon="7.2048">
        <ele>332</ele>
        <time>2022-06-09T19:26:17Z</time>
      </trkpt>
      <trkpt lat="48.46956" lon="7.21296">
        <ele>320</ele>
        <time>2022-06-09T19:28:57Z</time>
      </trkpt>
      <trkpt lat="48.47258" lon="7.21546">
        <ele>315</ele>
        <time>2022-06-09T19:29:58Z</time>
      </trkpt>
      <trkpt lat="48.47727" lon="7.2162">
        <ele>313</ele>
        <time>2022-06-09T19:31:22Z</time>
      </trkpt>
      <trkpt lat="48.4775" lon="7.21744">
        <ele>311</ele>
        <time>2022-06-09T19:31:37Z</time>
      </trkpt>
      <trkpt lat="48.47909" lon="7.22006">
        <ele>312</ele>
        <time>2022-06-09T19:32:19Z</time>
      </trkpt>
      <trkpt lat="48.48106" lon="7.22173">
        <ele>310</ele>
        <time>2022-06-09T19:32:59Z</time>
      </trkpt>
      <trkpt lat="48.48276" lon="7.2219">
        <ele>301</ele>
        <time>2022-06-09T19:33:30Z</time>
      </trkpt>
      <trkpt lat="48.48658" lon="7.22546">
        <ele>302</ele>
        <time>2022-06-09T19:34:50Z</time>
      </trkpt>
      <trkpt lat="48.48737" lon="7.23104">
        <ele>307</ele>
        <time>2022-06-09T19:35:57Z</time>
      </trkpt>
      <trkpt lat="48.48823" lon="7.23452">
        <ele>300</ele>
        <time>2022-06-09T19:36:41Z</time>
      </trkpt>
      <trkpt lat="48.48823" lon="7.23602">
        <ele>295</ele>
        <time>2022-06-09T19:36:58Z</time>
      </trkpt>
      <trkpt lat="48.4915" lon="7.2443">
        <ele>288</ele>
        <time>2022-06-09T19:38:52Z</time>
      </trkpt>
      <trkpt lat="48.493" lon="7.24465">
        <ele>298</ele>
        <time>2022-06-09T19:39:19Z</time>
      </trkpt>
      <trkpt lat="48.49536" lon="7.24778">
        <ele>292</ele>
        <time>2022-06-09T19:40:15Z</time>
      </trkpt>
      <trkpt lat="48.49801" lon="7.24971">
        <ele>300</ele>
        <time>2022-06-09T19:41:07Z</time>
      </trkpt>
      <trkpt lat="48.50006" lon="7.25254">
        <ele>280</ele>
        <time>2022-06-09T19:41:57Z</time>
      </trkpt>
      <trkpt lat="48.50583" lon="7.25718">
        <ele>287</ele>
        <time>2022-06-09T19:43:53Z</time>
      </trkpt>
      <trkpt lat="48.5083" lon="7.26173">
        <ele>283</ele>
        <time>2022-06-09T19:45:02Z</time>
      </trkpt>
      <trkpt lat="48.50876" lon="7.26979">
        <ele>268</ele>
        <time>2022-06-09T19:46:38Z</time>
      </trkpt>
      <trkpt lat="48.50995" lon="7.2713">
        <ele>276</ele>
        <time>2022-06-09T19:47:05Z</time>
      </trkpt>
      <trkpt lat="48.51001" lon="7.27314">
        <ele>273</ele>
        <time>2022-06-09T19:47:27Z</time>
      </trkpt>
      <trkpt lat="48.51316" lon="7.28155">
        <ele>265</ele>
        <time>2022-06-09T19:49:21Z</time>
      </trkpt>
    </trkseg>
  </trk>
</gpx>